Pelican State — WDE4433 — position and weather

sailwx.info

Track history (hours):
 
Tides and Currents Weather Stations Pressure Air Temp Water Temp Dewpoint Dewpoint Depression Visibility Wind Speed Wind Dir Waves Ship Positions

Pelican State

Owner: Crowley Petroleum Serives, Jacksonville, FL. More information available from US FCC via Universal Licensing System and Coast Guard Vessel Documentation Center.

Last reported at 2016-May-27 07:33 UTC. Time now 2016-May-28 11:57 UTC.
Position N 29°42' W 093°51'.

Length 183 m; draft 11.7 m.

Type: Tanker. MMSI: 367353110.

Date/timePositionNaut miles runAvg speedWind from/ knotsBaromVisibWave heightAir tempDewpointWater temp
2016-May-27 07:33N 29°42' W 093°51'1010.2
2016-May-27 06:34N 29°51' W 093°57'9 9.1
2016-May-27 05:34N 29°59' W 093°52'6 6.2
2016-May-27 04:32N 30°01' W 093°59'6 5.8
2016-May-27 03:27N 30°05' W 094°04'0 0.5
2016-May-27 02:31N 30°05' W 094°05'  
2016-May-18 18:29N 30°01' W 093°57'6 6.7
2016-May-18 17:33N 29°57' W 093°52'7 7.3
2016-May-18 16:33N 29°51' W 093°57'9 8.4
2016-May-18 15:30N 29°43' W 093°52'910.1
2016-May-18 14:33N 29°35' W 093°47'5 5.1
2016-May-18 13:33N 29°31' W 093°43'6 5.5
2016-May-18 12:23N 29°25' W 093°40'5 4.4
2016-May-18 11:10N 29°20' W 093°39'2 3.7
2016-May-18 10:33N 29°18' W 093°39'7 7.3
2016-May-18 09:32N 29°10' W 093°40'19 9.2
2016-May-18 07:29N 28°55' W 093°28'  
Track history (hours):
 
Tides and Currents Weather Stations Pressure Air Temp Water Temp Dewpoint Dewpoint Depression Visibility Wind Speed Wind Dir Waves Ship Positions

Pelican State

Owner: Crowley Petroleum Serives, Jacksonville, FL. More information available from US FCC via Universal Licensing System and Coast Guard Vessel Documentation Center.

Last reported at 2016-May-27 07:33 UTC. Time now 2016-May-28 11:57 UTC.
Position N 29°42' W 093°51'.

Length 183 m; draft 11.7 m.

Type: Tanker. MMSI: 367353110.

Date/timePositionNaut miles runAvg speedWind from/ knotsBaromVisibWave heightAir tempDewpointWater temp
2016-May-27 07:33N 29°42' W 093°51'1010.2
2016-May-27 06:34N 29°51' W 093°57'9 9.1
2016-May-27 05:34N 29°59' W 093°52'6 6.2
2016-May-27 04:32N 30°01' W 093°59'6 5.8
2016-May-27 03:27N 30°05' W 094°04'0 0.5
2016-May-27 02:31N 30°05' W 094°05'  
2016-May-18 18:29N 30°01' W 093°57'6 6.7
2016-May-18 17:33N 29°57' W 093°52'7 7.3
2016-May-18 16:33N 29°51' W 093°57'9 8.4
2016-May-18 15:30N 29°43' W 093°52'910.1
2016-May-18 14:33N 29°35' W 093°47'5 5.1
2016-May-18 13:33N 29°31' W 093°43'6 5.5
2016-May-18 12:23N 29°25' W 093°40'5 4.4
2016-May-18 11:10N 29°20' W 093°39'2 3.7
2016-May-18 10:33N 29°18' W 093°39'7 7.3
2016-May-18 09:32N 29°10' W 093°40'19 9.2
2016-May-18 07:29N 28°55' W 093°28'  

Dump ship's entire track history